createdAt,value
2018-02-06T00:00:41.450Z,0
2018-02-06T00:01:41.549Z,0
2018-02-06T00:02:41.475Z,0
2018-02-06T00:03:41.716Z,0
2018-02-06T00:04:41.725Z,0
2018-02-06T00:05:41.758Z,0
2018-02-06T00:06:41.870Z,0
2018-02-06T00:07:41.783Z,0
2018-02-06T00:08:56.199Z,0
2018-02-06T00:09:56.205Z,0
2018-02-06T00:10:41.829Z,0
2018-02-06T00:11:56.224Z,0
2018-02-06T00:12:41.827Z,0
2018-02-06T00:13:41.324Z,0
2018-02-06T00:14:41.615Z,0
2018-02-06T00:15:41.848Z,0
2018-02-06T00:16:41.879Z,0
2018-02-06T00:17:41.873Z,0
2018-02-06T00:18:41.894Z,0
2018-02-06T00:19:41.886Z,0
2018-02-06T00:20:41.903Z,0
2018-02-06T00:21:41.947Z,0
2018-02-06T00:22:41.415Z,0
2018-02-06T00:23:56.593Z,0
2018-02-06T00:24:56.371Z,0
2018-02-06T00:25:41.946Z,0
2018-02-06T00:26:41.980Z,0
2018-02-06T00:27:41.711Z,0
2018-02-06T00:28:41.485Z,0
2018-02-06T00:29:42.023Z,0
2018-02-06T00:30:42.021Z,0
2018-02-06T00:32:42.029Z,0
2018-02-06T00:33:41.795Z,0
2018-02-06T00:34:41.777Z,0
2018-02-06T00:35:41.661Z,0
2018-02-06T00:36:41.804Z,0
2018-02-06T00:37:56.825Z,0
2018-02-06T00:38:56.510Z,0
2018-02-06T00:39:56.764Z,0
2018-02-06T00:40:42.190Z,0
2018-02-06T00:41:56.551Z,0
2018-02-06T00:42:41.885Z,0
2018-02-06T00:43:41.901Z,0
2018-02-06T00:44:41.910Z,0
2018-02-06T00:45:42.179Z,0
2018-02-06T00:46:41.935Z,0
2018-02-06T00:47:42.207Z,0
2018-02-06T00:48:41.948Z,0
2018-02-06T00:49:41.950Z,0
2018-02-06T00:50:42.226Z,0
2018-02-06T00:52:42.020Z,0
2018-02-06T00:53:42.009Z,0
2018-02-06T00:54:41.999Z,0
2018-02-06T00:55:42.273Z,0
2018-02-06T00:56:56.936Z,0
2018-02-06T00:57:42.035Z,0
2018-02-06T00:58:42.281Z,0
2018-02-06T00:59:42.079Z,0
2018-02-06T01:00:42.307Z,0
2018-02-06T01:01:56.746Z,0
2018-02-06T01:02:42.072Z,0
2018-02-06T01:03:42.086Z,0
2018-02-06T01:04:42.367Z,0
2018-02-06T01:05:42.378Z,0
2018-02-06T01:06:42.178Z,0
2018-02-06T01:07:42.136Z,0
2018-02-06T01:08:42.144Z,0
2018-02-06T01:09:57.094Z,0
2018-02-06T01:10:42.168Z,0
2018-02-06T01:11:42.185Z,0
2018-02-06T01:12:57.109Z,0
2018-02-06T01:13:42.449Z,0
2018-02-06T01:14:42.206Z,0
2018-02-06T01:15:57.148Z,0
2018-02-06T01:16:42.243Z,0
2018-02-06T01:17:42.511Z,0
2018-02-06T01:18:42.529Z,0
2018-02-06T01:19:42.264Z,0
2018-02-06T01:20:42.283Z,0
2018-02-06T01:21:42.551Z,0
2018-02-06T01:22:42.540Z,0
2018-02-06T01:23:42.531Z,0
2018-02-06T01:24:42.063Z,0
2018-02-06T01:25:42.323Z,0
2018-02-06T01:26:42.613Z,0
2018-02-06T01:27:42.602Z,0
2018-02-06T01:28:57.250Z,0
2018-02-06T01:29:42.621Z,0
2018-02-06T01:30:57.290Z,0
2018-02-06T01:31:42.141Z,0
2018-02-06T01:32:42.434Z,0
2018-02-06T01:33:42.433Z,0
2018-02-06T01:35:42.707Z,0
2018-02-06T01:36:42.687Z,0
2018-02-06T01:37:42.456Z,0
2018-02-06T01:38:42.460Z,0
2018-02-06T01:39:42.451Z,0
2018-02-06T01:40:57.411Z,0
2018-02-06T01:41:42.487Z,0
2018-02-06T01:42:42.250Z,0
2018-02-06T01:43:42.508Z,0
2018-02-06T01:44:57.443Z,0
2018-02-06T01:45:42.777Z,0
2018-02-06T01:46:42.787Z,0
2018-02-06T01:47:42.527Z,0
2018-02-06T01:48:42.804Z,0
2018-02-06T01:49:42.821Z,0
2018-02-06T01:50:42.823Z,0
2018-02-06T01:51:42.836Z,0
2018-02-06T01:52:42.857Z,0
2018-02-06T01:53:42.862Z,0
2018-02-06T01:54:42.673Z,0
2018-02-06T01:55:42.627Z,0
2018-02-06T01:56:42.638Z,0
2018-02-06T01:57:42.903Z,0
2018-02-06T01:58:42.661Z,0
2018-02-06T01:59:57.339Z,0
2018-02-06T02:01:42.948Z,0
2018-02-06T02:02:42.692Z,0
2018-02-06T02:03:42.727Z,0
2018-02-06T02:05:42.465Z,0
2018-02-06T02:06:42.747Z,0
2018-02-06T02:07:42.984Z,0
2018-02-06T02:08:43.017Z,0
2018-02-06T02:09:42.539Z,0
2018-02-06T02:10:42.785Z,0
2018-02-06T02:11:42.542Z,0
2018-02-06T02:12:57.474Z,0
2018-02-06T02:13:42.553Z,0
2018-02-06T02:14:43.077Z,0
2018-02-06T02:15:43.081Z,0
2018-02-06T02:16:43.105Z,0
2018-02-06T02:17:43.081Z,0
2018-02-06T02:18:43.118Z,0
2018-02-06T02:19:43.125Z,0
2018-02-06T02:21:42.904Z,0
2018-02-06T02:22:43.173Z,0
2018-02-06T02:23:42.914Z,0
2018-02-06T02:24:42.909Z,0
2018-02-06T02:25:43.182Z,0
2018-02-06T02:26:43.189Z,0
2018-02-06T02:27:43.189Z,0
2018-02-06T02:28:43.231Z,0
2018-02-06T02:29:43.215Z,0
2018-02-06T02:30:43.079Z,0
2018-02-06T02:31:57.904Z,0
2018-02-06T02:32:43.264Z,0
2018-02-06T02:33:43.015Z,0
2018-02-06T02:34:43.288Z,0
2018-02-06T02:35:43.285Z,0
2018-02-06T02:36:43.028Z,0
2018-02-06T02:37:43.070Z,0
2018-02-06T02:38:43.325Z,0
2018-02-06T02:39:43.315Z,0
2018-02-06T02:40:43.325Z,0
2018-02-06T04:38:59.318Z,0
2018-02-06T04:39:44.508Z,0
2018-02-06T04:40:59.198Z,0
2018-02-06T04:41:44.508Z,0
2018-02-06T04:42:59.216Z,0
2018-02-06T04:43:44.324Z,0
2018-02-06T04:44:44.557Z,0
2018-02-06T04:45:44.325Z,0
2018-02-06T04:46:44.589Z,0
2018-02-06T04:47:44.580Z,0
2018-02-06T04:48:44.616Z,0
2018-02-06T04:49:44.346Z,0
2018-02-06T04:50:44.647Z,0
2018-02-06T04:51:44.380Z,0
2018-02-06T04:52:44.628Z,0
2018-02-06T04:53:44.404Z,0
2018-02-06T04:54:59.339Z,0
2018-02-06T04:55:44.659Z,0
2018-02-06T04:56:44.432Z,0
2018-02-06T04:58:44.466Z,0
2018-02-06T04:59:44.707Z,0
2018-02-06T05:01:44.476Z,0
2018-02-06T05:02:44.814Z,0
2018-02-06T05:03:59.421Z,0
2018-02-06T05:04:44.515Z,0
2018-02-06T05:05:44.518Z,0
2018-02-06T05:06:44.797Z,0
2018-02-06T05:07:44.795Z,0
2018-02-06T05:08:44.793Z,0
2018-02-06T05:09:59.482Z,0
2018-02-06T05:11:44.333Z,0
2018-02-06T05:12:44.595Z,0
2018-02-06T05:13:59.252Z,0
2018-02-06T05:14:44.858Z,0
2018-02-06T05:15:44.855Z,0
2018-02-06T05:16:44.893Z,0
2018-02-06T05:17:44.885Z,0
2018-02-06T05:18:44.894Z,0
2018-02-06T05:19:44.929Z,0
2018-02-06T05:20:44.654Z,0
2018-02-06T05:21:44.936Z,0
2018-02-06T05:22:44.672Z,0
2018-02-06T05:23:44.942Z,0
2018-02-06T05:24:45.041Z,0
2018-02-06T05:25:44.697Z,0
2018-02-06T05:26:44.971Z,0
2018-02-06T05:27:45.029Z,0
2018-02-06T05:28:44.485Z,0
2018-02-06T05:29:45.004Z,0
2018-02-06T05:30:44.765Z,0
2018-02-06T05:31:45.032Z,0
2018-02-06T05:32:45.028Z,0
2018-02-06T05:33:44.786Z,0
2018-02-06T05:34:45.058Z,0
2018-02-06T05:36:45.064Z,0
2018-02-06T05:37:44.833Z,0
2018-02-06T05:38:45.089Z,0
2018-02-06T05:39:44.616Z,0
2018-02-06T05:40:45.092Z,0
2018-02-06T05:41:59.523Z,0
2018-02-06T05:42:44.870Z,0
2018-02-06T05:43:45.123Z,0
2018-02-06T05:44:44.932Z,0
2018-02-06T05:45:45.255Z,0
2018-02-06T05:46:45.145Z,0
2018-02-06T05:47:45.195Z,0
2018-02-06T05:48:44.733Z,0
2018-02-06T05:49:45.211Z,0
2018-02-06T05:50:59.897Z,0
2018-02-06T05:51:45.197Z,0
2018-02-06T05:52:45.260Z,0
2018-02-06T05:53:45.219Z,0
2018-02-06T05:54:44.733Z,0
2018-02-06T05:55:45.266Z,0
2018-02-06T05:56:45.020Z,0
2018-02-06T05:57:59.675Z,4
2018-02-06T05:58:44.547Z,0
2018-02-06T05:59:59.710Z,0
2018-02-06T06:00:44.803Z,4
2018-02-06T06:01:45.319Z,0
2018-02-06T06:02:45.325Z,4
2018-02-06T06:03:45.371Z,0
2018-02-06T06:04:45.341Z,4
2018-02-06T06:05:45.341Z,4
2018-02-06T06:07:00.031Z,4
2018-02-06T06:07:45.373Z,4
2018-02-06T06:08:45.157Z,8
2018-02-06T06:09:45.132Z,8
2018-02-06T06:10:45.393Z,8
2018-02-06T06:11:45.404Z,12
2018-02-06T06:12:45.484Z,16
2018-02-06T06:13:59.839Z,20
2018-02-06T06:14:45.184Z,20
2018-02-06T06:15:45.461Z,24
2018-02-06T06:16:45.442Z,28
2018-02-06T06:17:59.880Z,36
2018-02-06T06:18:45.481Z,40
2018-02-06T06:19:45.470Z,48
2018-02-06T06:20:45.500Z,52
2018-02-06T06:21:45.514Z,60
2018-02-06T06:22:45.517Z,72
2018-02-06T06:23:45.532Z,84
2018-02-06T06:24:45.511Z,92
2018-02-06T06:25:45.588Z,108
2018-02-06T06:26:45.610Z,120
2018-02-06T06:27:45.565Z,136
2018-02-06T06:28:45.581Z,152
2018-02-06T06:30:00.238Z,172
2018-02-06T06:31:00.018Z,192
2018-02-06T06:31:45.598Z,212
2018-02-06T06:32:45.586Z,228
2018-02-06T06:33:45.364Z,256
2018-02-06T06:34:45.629Z,284
2018-02-06T06:35:45.642Z,308
2018-02-06T06:36:45.396Z,340
2018-02-06T06:37:45.643Z,372
2018-02-06T06:38:45.467Z,408
2018-02-06T06:41:00.114Z,492
2018-02-06T06:42:00.366Z,532
2018-02-06T06:43:00.384Z,576
2018-02-06T06:43:45.717Z,612
2018-02-06T06:45:00.375Z,672
2018-02-06T06:46:00.418Z,724
2018-02-06T06:46:45.502Z,764
2018-02-06T06:47:45.750Z,824
2018-02-06T06:48:45.522Z,880
2018-02-06T06:49:45.541Z,936
2018-02-06T06:50:59.956Z,1008
2018-02-06T06:52:45.565Z,1120
2018-02-06T06:53:45.555Z,1184
2018-02-06T06:55:00.481Z,1276
2018-02-06T06:56:00.492Z,1344
2018-02-06T06:56:45.840Z,1396
2018-02-06T06:57:45.853Z,1464
2018-02-06T06:58:45.851Z,1536
2018-02-06T06:59:45.622Z,1604
2018-02-06T07:01:45.642Z,1748
2018-02-06T07:02:45.920Z,1824
2018-02-06T07:04:45.923Z,1976
2018-02-06T07:05:45.669Z,2052
2018-02-06T07:06:45.944Z,2124
2018-02-06T07:08:00.613Z,2220
2018-02-06T07:08:45.965Z,2284
2018-02-06T07:09:45.711Z,2376
2018-02-06T07:10:46.017Z,2472
2018-02-06T07:11:45.727Z,2540
2018-02-06T07:12:45.992Z,2608
2018-02-06T07:13:46.004Z,2676
2018-02-06T07:14:46.010Z,2736
2018-02-06T07:15:46.034Z,2800
2018-02-06T07:17:00.712Z,2888
2018-02-06T07:19:00.749Z,3036
2018-02-06T07:19:46.093Z,3088
2018-02-06T07:21:45.840Z,3232
2018-02-06T07:22:46.091Z,3300
2018-02-06T07:23:46.118Z,3368
2018-02-06T07:24:46.138Z,3432
2018-02-06T07:26:00.547Z,3524
2018-02-06T07:26:46.119Z,3580
2018-02-06T07:27:46.149Z,3652
2018-02-06T07:29:00.832Z,3764
2018-02-06T07:30:00.566Z,4440
2018-02-06T07:31:00.836Z,7648
2018-02-06T07:31:46.173Z,10800
2018-02-06T07:33:00.879Z,16640
2018-02-06T07:33:46.217Z,18944
2018-02-06T07:34:46.213Z,20608
2018-02-06T07:35:45.958Z,20608
2018-02-06T07:36:46.086Z,22560
2018-02-06T07:37:46.230Z,22752
2018-02-06T07:38:46.260Z,22560
2018-02-06T07:39:46.020Z,23072
2018-02-06T07:40:46.031Z,23232
2018-02-06T07:42:00.950Z,17184
2018-02-06T07:42:45.771Z,13440
2018-02-06T07:43:46.050Z,10180
2018-02-06T07:45:46.409Z,9472
2018-02-06T07:47:01.014Z,10188
2018-02-06T07:47:46.370Z,10216
2018-02-06T07:49:01.028Z,10284
2018-02-06T07:49:45.869Z,10324
2018-02-06T07:50:46.393Z,10384
2018-02-06T07:51:45.888Z,10396
2018-02-06T07:52:46.417Z,10328
2018-02-06T07:53:46.407Z,9452
2018-02-06T07:55:01.114Z,9464
2018-02-06T07:55:46.461Z,10244
2018-02-06T07:56:46.039Z,10592
2018-02-06T07:57:46.207Z,10680
2018-02-06T07:58:46.451Z,10740
2018-02-06T07:59:46.239Z,10892
2018-02-06T08:00:46.264Z,10948
2018-02-06T08:01:46.536Z,11024
2018-02-06T08:02:46.546Z,11056
2018-02-06T08:04:00.946Z,11064
2018-02-06T08:05:01.221Z,11076
2018-02-06T08:05:46.332Z,11092
2018-02-06T08:07:01.257Z,11136
2018-02-06T08:07:46.607Z,11160
2018-02-06T08:09:01.260Z,11072
2018-02-06T08:09:46.582Z,11056
2018-02-06T08:10:46.642Z,11112
2018-02-06T08:11:46.130Z,11176
2018-02-06T08:12:46.750Z,10544
2018-02-06T08:13:46.422Z,10388
2018-02-06T08:14:46.681Z,11088
2018-02-06T08:15:46.429Z,11188
2018-02-06T08:16:46.457Z,11152
2018-02-06T08:17:46.818Z,11152
2018-02-06T08:18:46.472Z,11124
2018-02-06T08:20:01.390Z,11100
2018-02-06T08:21:46.750Z,11040
2018-02-06T08:22:46.507Z,11036
2018-02-06T08:24:01.448Z,10920
2018-02-06T08:24:46.801Z,10764
2018-02-06T08:25:46.817Z,10900
2018-02-06T08:26:46.813Z,10812
2018-02-06T08:27:46.845Z,10820
2018-02-06T08:28:46.356Z,10688
2018-02-06T08:29:46.857Z,10844
2018-02-06T08:30:46.905Z,10860
2018-02-06T08:31:46.870Z,10680
2018-02-06T08:32:46.907Z,10764
2018-02-06T08:33:46.913Z,10732
2018-02-06T08:34:46.906Z,10640
2018-02-06T08:35:46.935Z,10612
2018-02-06T08:36:47.000Z,10544
2018-02-06T08:37:46.718Z,10596
2018-02-06T08:38:46.958Z,10532
2018-02-06T08:39:46.758Z,10480
2018-02-06T08:41:01.662Z,10440
2018-02-06T08:42:01.672Z,10432
2018-02-06T08:42:47.022Z,10460
2018-02-06T08:43:47.026Z,10396
2018-02-06T08:44:47.053Z,10372
2018-02-06T08:45:46.813Z,10296
2018-02-06T08:46:47.091Z,10356
2018-02-06T08:47:47.077Z,10268
2018-02-06T08:48:46.876Z,10244
2018-02-06T08:49:47.101Z,10332
2018-02-06T08:50:47.131Z,10332
2018-02-06T08:52:01.561Z,10340
2018-02-06T08:52:47.121Z,10324
2018-02-06T08:53:47.163Z,10340
2018-02-06T08:54:46.675Z,10396
2018-02-06T08:55:46.935Z,10416
2018-02-06T08:56:46.709Z,10420
2018-02-06T08:57:46.970Z,10428
2018-02-06T08:58:47.244Z,10444
2018-02-06T08:59:46.996Z,10504
2018-02-06T09:00:47.261Z,10512
2018-02-06T09:01:47.001Z,10492
2018-02-06T09:02:47.301Z,10516
2018-02-06T09:03:47.270Z,10548
2018-02-06T09:04:47.328Z,10584
2018-02-06T09:06:02.037Z,10584
2018-02-06T09:06:47.079Z,10520
2018-02-06T09:08:16.693Z,10576
2018-02-06T09:08:47.091Z,10556
2018-02-06T09:09:47.389Z,10600
2018-02-06T09:10:47.124Z,10656
2018-02-06T09:11:47.390Z,10668
2018-02-06T09:12:47.159Z,10736
2018-02-06T09:13:47.460Z,10724
2018-02-06T09:14:47.453Z,10732
2018-02-06T09:15:47.195Z,10776
2018-02-06T09:17:02.128Z,10908
2018-02-06T09:17:47.480Z,10840
2018-02-06T09:18:47.494Z,10836
2018-02-06T09:20:01.926Z,10908
2018-02-06T09:20:47.526Z,10980
2018-02-06T09:21:47.519Z,11156
2018-02-06T09:22:47.546Z,11048
2018-02-06T09:24:02.202Z,10956
2018-02-06T09:25:02.248Z,10928
2018-02-06T09:26:02.247Z,10840
2018-02-06T09:26:47.339Z,10900
2018-02-06T09:27:47.349Z,10908
2018-02-06T09:28:47.425Z,10832
2018-02-06T09:29:47.643Z,10836
2018-02-06T09:30:47.410Z,10756
2018-02-06T09:31:47.664Z,10696
2018-02-06T09:32:47.432Z,10704
2018-02-06T09:33:47.681Z,10656
2018-02-06T09:34:47.714Z,10632
2018-02-06T09:35:47.712Z,10596
2018-02-06T09:37:02.416Z,10596
2018-02-06T09:37:47.470Z,10580
2018-02-06T09:38:47.760Z,10508
2018-02-06T09:40:02.426Z,10508
2018-02-06T09:40:47.777Z,10540
2018-02-06T09:41:47.791Z,10548
2018-02-06T09:42:47.558Z,10496
2018-02-06T09:43:47.826Z,10412
2018-02-06T09:44:47.576Z,10332
2018-02-06T09:45:47.847Z,10344
2018-02-06T09:46:47.848Z,10256
2018-02-06T09:47:47.600Z,10304
2018-02-06T09:48:47.883Z,10292
2018-02-06T09:49:47.909Z,10216
2018-02-06T09:50:47.921Z,10200
2018-02-06T09:51:47.657Z,10204
2018-02-06T09:52:47.911Z,10220
2018-02-06T09:55:02.635Z,10356
2018-02-06T09:55:47.742Z,10460
2018-02-06T09:56:47.792Z,10620
2018-02-06T09:58:48.045Z,10844
2018-02-06T09:59:48.002Z,10784
2018-02-06T10:00:47.792Z,10748
2018-02-06T10:01:48.069Z,10664
2018-02-06T10:02:48.070Z,10616
2018-02-06T10:04:02.797Z,10572
2018-02-06T10:04:48.152Z,10612
2018-02-06T10:05:48.098Z,10664
2018-02-06T10:06:47.884Z,10556
2018-02-06T10:08:02.561Z,10580
2018-02-06T10:08:48.137Z,10524
2018-02-06T10:09:48.165Z,10452
2018-02-06T10:11:02.848Z,10456
2018-02-06T10:11:48.189Z,10464
2018-02-06T10:13:02.923Z,10432
2018-02-06T10:14:48.236Z,10336
2018-02-06T10:15:48.253Z,10268
2018-02-06T10:17:02.932Z,10292
2018-02-06T10:17:48.265Z,10296
2018-02-06T10:19:02.984Z,10132
2018-02-06T10:20:02.702Z,10004
2018-02-06T10:20:48.065Z,9932
2018-02-06T10:21:48.044Z,9828
2018-02-06T10:22:48.078Z,9744
2018-02-06T10:23:48.070Z,9760
2018-02-06T10:24:48.358Z,9496
2018-02-06T10:25:47.871Z,9116
2018-02-06T10:27:02.800Z,8592
2018-02-06T10:27:48.411Z,7592
2018-02-06T10:28:48.178Z,7904
2018-02-06T10:29:48.424Z,7740
2018-02-06T10:31:03.100Z,7136
2018-02-06T10:31:48.446Z,6928
2018-02-06T10:32:48.445Z,6640
2018-02-06T10:33:48.241Z,6384
2018-02-06T10:34:48.501Z,6060
2018-02-06T10:35:48.503Z,5940
2018-02-06T10:37:02.935Z,5720
2018-02-06T10:37:48.505Z,5632
2018-02-06T10:38:48.296Z,5472
2018-02-06T10:39:48.293Z,5296
2018-02-06T10:40:48.318Z,5224
2018-02-06T10:41:48.330Z,5032
2018-02-06T10:43:03.015Z,4888
2018-02-06T10:43:48.344Z,4820
2018-02-06T10:44:48.621Z,4712
2018-02-06T10:45:48.650Z,4636
2018-02-06T10:46:48.641Z,4592
2018-02-06T10:47:48.408Z,4540
2018-02-06T10:49:03.363Z,4496
2018-02-06T10:49:48.439Z,4464
2018-02-06T10:51:03.381Z,4416
2018-02-06T10:51:48.723Z,4392
2018-02-06T10:52:48.720Z,4376
2018-02-06T10:53:48.493Z,4364
2018-02-06T10:54:48.742Z,4368
2018-02-06T10:55:48.781Z,4384
2018-02-06T10:57:48.544Z,4384
2018-02-06T11:00:03.480Z,4380
2018-02-06T11:00:48.828Z,4388
2018-02-06T11:01:48.885Z,4392
2018-02-06T11:02:48.871Z,4388
2018-02-06T11:04:03.043Z,4380
2018-02-06T11:04:48.640Z,4400
2018-02-06T11:05:48.740Z,4404
2018-02-06T11:06:48.668Z,4420
2018-02-06T11:07:48.905Z,4436
2018-02-06T11:08:48.934Z,4464
2018-02-06T11:10:48.967Z,4628
2018-02-06T11:11:48.720Z,4528
2018-02-06T11:12:48.975Z,4524
2018-02-06T11:13:48.991Z,4504
2018-02-06T11:15:18.362Z,4468
2018-02-06T11:15:49.035Z,4484
2018-02-06T11:16:48.526Z,4512
2018-02-06T11:17:48.822Z,4524
2018-02-06T11:18:48.558Z,4552
2018-02-06T11:19:48.841Z,4564
2018-02-06T11:20:49.092Z,4428
2018-02-06T11:21:49.118Z,4556
2018-02-06T11:22:48.849Z,4608
2018-02-06T11:25:03.819Z,3888
2018-02-06T11:25:49.158Z,4212
2018-02-06T11:26:49.165Z,5004
2018-02-06T11:28:49.180Z,5192
2018-02-06T11:30:03.994Z,4920
2018-02-06T11:30:49.217Z,4724
2018-02-06T11:32:03.927Z,5340
2018-02-06T11:32:49.258Z,4184
2018-02-06T11:33:49.255Z,4036
2018-02-06T11:34:49.025Z,5156
2018-02-06T11:35:49.365Z,5324
2018-02-06T11:36:49.323Z,5144
2018-02-06T11:37:49.094Z,3860
2018-02-06T11:38:49.091Z,3632
2018-02-06T11:39:49.092Z,3556
2018-02-06T11:41:03.783Z,4184
2018-02-06T11:41:49.419Z,3840
2018-02-06T11:42:49.394Z,3600
2018-02-06T11:43:49.411Z,4532
2018-02-06T11:45:04.098Z,3896
2018-02-06T11:45:49.161Z,3620
2018-02-06T11:46:49.462Z,3576
2018-02-06T11:49:49.486Z,3464
2018-02-06T11:50:49.486Z,3484
2018-02-06T11:51:49.024Z,4640
2018-02-06T11:52:49.264Z,4272
2018-02-06T11:53:49.543Z,4628
2018-02-06T11:54:49.282Z,4472
2018-02-06T11:55:49.068Z,3600
2018-02-06T11:56:49.571Z,3356
2018-02-06T11:57:49.588Z,3332
2018-02-06T11:58:49.322Z,4228
2018-02-06T11:59:49.353Z,3948
2018-02-06T12:00:49.632Z,4532
2018-02-06T12:02:04.318Z,3444
2018-02-06T12:02:49.675Z,3388
2018-02-06T12:03:49.406Z,3832
2018-02-06T12:04:49.417Z,3800
2018-02-06T12:05:49.714Z,3484
2018-02-06T12:06:49.504Z,4404
2018-02-06T12:07:49.476Z,4480
2018-02-06T12:09:49.509Z,4480
2018-02-06T12:10:49.758Z,4484
2018-02-06T12:11:49.786Z,4448
2018-02-06T12:13:04.458Z,4412
2018-02-06T12:15:04.483Z,4456
2018-02-06T12:15:49.801Z,4516
2018-02-06T12:16:49.597Z,4560
2018-02-06T12:18:04.522Z,4572
2018-02-06T12:18:49.607Z,4464
2018-02-06T12:19:49.893Z,4176
2018-02-06T12:20:49.895Z,3684
2018-02-06T12:21:49.907Z,4472
2018-02-06T12:22:49.898Z,4520
2018-02-06T12:23:49.929Z,4504
2018-02-06T12:24:49.708Z,4400
2018-02-06T12:25:49.688Z,4492
2018-02-06T12:26:49.964Z,4484
2018-02-06T12:27:49.968Z,4468
2018-02-06T12:28:49.990Z,4488
2018-02-06T12:29:50.004Z,4468
2018-02-06T12:30:50.021Z,4468
2018-02-06T12:32:04.701Z,4496
2018-02-06T12:32:50.053Z,4484
2018-02-06T12:34:04.723Z,4476
2018-02-06T12:34:50.082Z,4468
2018-02-06T12:35:50.081Z,4472
2018-02-06T12:36:49.848Z,4452
2018-02-06T12:37:50.101Z,4468
2018-02-06T12:39:04.789Z,4472
2018-02-06T12:39:50.141Z,4500
2018-02-06T12:40:49.640Z,4476
2018-02-06T12:41:49.669Z,4468
2018-02-06T12:42:49.969Z,4456
2018-02-06T12:43:49.943Z,4456
2018-02-06T12:44:50.236Z,4476
2018-02-06T12:45:50.226Z,3764
2018-02-06T12:46:50.222Z,4044
2018-02-06T12:47:50.230Z,4412
2018-02-06T12:48:49.988Z,4440
2018-02-06T12:50:04.938Z,4432
2018-02-06T12:50:50.303Z,4420
2018-02-06T12:51:50.288Z,4436
2018-02-06T12:52:50.310Z,4444
2018-02-06T12:53:50.310Z,4436
2018-02-06T12:54:50.088Z,4404
2018-02-06T12:55:50.343Z,4412
2018-02-06T12:56:50.109Z,4396
2018-02-06T12:57:50.111Z,4400
2018-02-06T12:59:05.069Z,4332
2018-02-06T12:59:50.156Z,4384
2018-02-06T13:00:50.439Z,4404
2018-02-06T13:01:50.410Z,4376
2018-02-06T13:02:50.439Z,4376
2018-02-06T13:05:04.886Z,4416
2018-02-06T13:05:50.565Z,4424
2018-02-06T13:06:50.499Z,4432
2018-02-06T13:07:50.539Z,4432
2018-02-06T13:08:50.032Z,4432
2018-02-06T13:09:50.547Z,4424
2018-02-06T13:10:50.307Z,4412
2018-02-06T13:11:50.059Z,4416
2018-02-06T13:13:05.265Z,4388
2018-02-06T13:13:50.323Z,4408
2018-02-06T13:14:50.596Z,4404
2018-02-06T13:15:50.600Z,4404
2018-02-06T13:16:50.625Z,4408
2018-02-06T13:17:50.646Z,4412
2018-02-06T13:18:50.404Z,4412
2018-02-06T13:19:50.665Z,4412
2018-02-06T13:20:50.170Z,4408
2018-02-06T13:22:05.359Z,4408
2018-02-06T13:22:50.471Z,4404
2018-02-06T13:24:05.402Z,4404
2018-02-06T13:24:50.713Z,4384
2018-02-06T13:25:50.488Z,4368
2018-02-06T13:26:50.505Z,4388
2018-02-06T13:27:50.770Z,4380
2018-02-06T13:28:50.535Z,4376
2018-02-06T13:30:05.211Z,4372
2018-02-06T13:30:50.557Z,4372
2018-02-06T13:31:50.834Z,4380
2018-02-06T13:32:50.322Z,4360
2018-02-06T13:33:50.862Z,4364
2018-02-06T13:35:05.539Z,4364
2018-02-06T13:35:50.985Z,4356
2018-02-06T13:37:05.311Z,4344
2018-02-06T13:38:05.576Z,4340
2018-02-06T13:39:50.918Z,4332
2018-02-06T13:40:50.963Z,4328
2018-02-06T13:41:50.711Z,4324
2018-02-06T13:43:50.733Z,4324
2018-02-06T13:44:50.981Z,4296
2018-02-06T13:45:50.749Z,4288
2018-02-06T13:46:51.011Z,4276
2018-02-06T13:47:51.148Z,4268
2018-02-06T13:48:51.056Z,4248
2018-02-06T13:49:51.040Z,4236
2018-02-06T13:51:51.091Z,4232
2018-02-06T13:53:05.773Z,4216
2018-02-06T13:53:51.198Z,4208
2018-02-06T13:54:51.139Z,4196
2018-02-06T13:55:51.161Z,4188
2018-02-06T13:56:51.151Z,4160
2018-02-06T13:58:50.939Z,4132
2018-02-06T13:59:51.293Z,4120
2018-02-06T14:01:05.910Z,4100
2018-02-06T14:01:50.980Z,4080
2018-02-06T14:02:51.266Z,4072
2018-02-06T14:03:51.012Z,4076
2018-02-06T14:04:51.036Z,4052
2018-02-06T14:05:51.301Z,4016
2018-02-06T14:06:51.074Z,4000
2018-02-06T14:07:51.043Z,3976
2018-02-06T14:09:06.005Z,3960
2018-02-06T14:09:51.340Z,3952
2018-02-06T14:10:51.338Z,3940
2018-02-06T14:12:51.387Z,3912
2018-02-06T14:13:51.386Z,3884
2018-02-06T14:14:51.416Z,3872
2018-02-06T14:15:51.142Z,3848
2018-02-06T14:16:51.200Z,3848
2018-02-06T14:17:51.435Z,3832
2018-02-06T14:18:51.485Z,3808
2018-02-06T14:19:51.480Z,3792
2018-02-06T14:20:51.493Z,3780
2018-02-06T14:21:51.516Z,3752
2018-02-06T14:22:51.269Z,3704
2018-02-06T14:23:51.510Z,3708
2018-02-06T14:25:06.205Z,3704
2018-02-06T14:25:51.536Z,3688
2018-02-06T14:26:51.578Z,3684
2018-02-06T14:27:51.573Z,3672
2018-02-06T14:28:51.599Z,3648
2018-02-06T14:29:51.609Z,3628
2018-02-06T14:30:51.376Z,3608
2018-02-06T14:31:51.639Z,3560
2018-02-06T14:32:51.657Z,3540
2018-02-06T14:33:51.657Z,3504
2018-02-06T14:34:51.681Z,3504
2018-02-06T14:35:51.699Z,3476
2018-02-06T14:36:51.696Z,3448
2018-02-06T14:37:51.458Z,3424
2018-02-06T14:38:51.716Z,3380
2018-02-06T14:40:06.416Z,3356
2018-02-06T14:40:51.249Z,3332
2018-02-06T14:41:51.504Z,3296
2018-02-06T14:42:51.780Z,3272
2018-02-06T14:43:51.790Z,3228
2018-02-06T14:44:51.804Z,3184
2018-02-06T14:45:51.861Z,3136
2018-02-06T14:46:51.576Z,3092
2018-02-06T14:47:51.856Z,3084
2018-02-06T14:48:51.602Z,3052
2018-02-06T14:49:51.864Z,3012
2018-02-06T14:50:51.895Z,2956
2018-02-06T14:51:51.660Z,2904
2018-02-06T14:52:51.909Z,2836
2018-02-06T14:53:51.674Z,2784
2018-02-06T14:54:51.699Z,2728
2018-02-06T14:55:51.940Z,2664
2018-02-06T14:57:06.368Z,2564
2018-02-06T14:57:51.984Z,2484
2018-02-06T14:58:51.993Z,2384
2018-02-06T14:59:51.757Z,2276
2018-02-06T15:00:52.024Z,2168
2018-02-06T15:02:06.444Z,2048
2018-02-06T15:02:51.781Z,1996
2018-02-06T15:03:52.045Z,1952
2018-02-06T15:04:52.066Z,1928
2018-02-06T15:05:51.809Z,1900
2018-02-06T15:06:51.843Z,1872
2018-02-06T15:07:51.845Z,1844
2018-02-06T15:08:52.296Z,1816
2018-02-06T15:09:52.122Z,1792
2018-02-06T15:10:52.142Z,1764
2018-02-06T15:12:21.509Z,1720
2018-02-06T15:12:52.162Z,1708
2018-02-06T15:13:51.937Z,1680
2018-02-06T15:14:51.962Z,1652
2018-02-06T15:15:51.957Z,1628
2018-02-06T15:16:52.248Z,1600
2018-02-06T15:18:06.919Z,1560
2018-02-06T15:18:51.997Z,1536
2018-02-06T15:19:52.014Z,1504
2018-02-06T15:20:52.009Z,1464
2018-02-06T15:21:52.294Z,1424
2018-02-06T15:22:52.062Z,1388
2018-02-06T15:24:52.303Z,1328
2018-02-06T15:25:52.078Z,1296
2018-02-06T15:26:52.114Z,1260
2018-02-06T15:28:21.698Z,1208
2018-02-06T15:28:52.122Z,1196
2018-02-06T15:29:52.382Z,1160
2018-02-06T15:30:52.464Z,1132
2018-02-06T15:31:52.417Z,1100
2018-02-06T15:32:52.400Z,1072
2018-02-06T15:33:52.447Z,1040
2018-02-06T15:34:52.256Z,1008
2018-02-06T15:35:52.246Z,972
2018-02-06T15:36:52.469Z,940
2018-02-06T15:37:51.987Z,904
2018-02-06T15:39:52.530Z,836
2018-02-06T15:41:06.945Z,792
2018-02-06T15:41:52.530Z,764
2018-02-06T15:43:07.225Z,720
2018-02-06T15:44:06.983Z,684
2018-02-06T15:44:52.601Z,656
2018-02-06T15:46:07.264Z,612
2018-02-06T15:46:52.598Z,588
2018-02-06T15:47:52.607Z,556
2018-02-06T15:48:52.630Z,524
2018-02-06T15:50:52.656Z,456
2018-02-06T15:51:52.408Z,428
2018-02-06T15:52:52.679Z,396
2018-02-06T15:53:52.698Z,372
2018-02-06T15:54:52.684Z,340
2018-02-06T15:55:52.724Z,316
2018-02-06T15:56:52.716Z,292
2018-02-06T15:57:52.485Z,268
2018-02-06T15:58:52.737Z,248
2018-02-06T16:00:07.179Z,220
2018-02-06T16:00:52.788Z,208
2018-02-06T16:01:52.784Z,188
2018-02-06T16:02:52.524Z,168
2018-02-06T16:03:52.838Z,152
2018-02-06T16:04:52.564Z,140
2018-02-06T16:05:52.585Z,120
2018-02-06T16:06:52.867Z,108
2018-02-06T16:07:52.840Z,100
2018-02-06T16:09:07.550Z,84
2018-02-06T16:09:52.639Z,76
2018-02-06T16:10:52.897Z,64
2018-02-06T16:11:52.720Z,56
2018-02-06T16:12:52.663Z,48
2018-02-06T16:13:52.704Z,44
2018-02-06T16:15:07.617Z,36
2018-02-06T16:15:52.984Z,28
2018-02-06T16:16:52.985Z,28